Un Karadeniz — TCTD3 — position and weather

sailwx.info

Track history (hours):
 
Tides and Currents Weather Stations Pressure Air Temp Water Temp Dewpoint Dewpoint Depression Visibility Wind Speed Wind Dir Waves Ship Positions

Un Karadeniz

Last reported at 2016-May-30 23:23 UTC. Time now 2016-May-31 00:07 UTC.
Position N 36°35' E 023°21'.

Length 193 m; draft 6.7 m.

Type: Ship (hazmat cat A). MMSI: 271002571.

Date/timePositionNaut miles runAvg speedWind from/ knotsBaromVisibWave heightAir tempDewpointWater temp
2016-May-30 23:23N 36°35' E 023°21'1719.9
2016-May-30 22:33N 36°49' E 023°33'2019.8
2016-May-30 21:32N 37°05' E 023°47'1919.9
2016-May-30 20:33N 37°22' E 024°00'2019.9
2016-May-30 19:33N 37°38' E 024°14'2020.1
2016-May-30 18:33N 37°53' E 024°31'3819.1
2016-May-30 16:33N 38°27' E 024°55'8119.2
2016-May-30 12:20N 39°39' E 025°43'15016.8
2016-May-30 03:23N 40°51' E 028°36'8 2.8
2016-May-30 00:31N 40°58' E 028°41'6 6.1
2016-May-29 23:33N 40°54' E 028°47'1918.7
2016-May-29 22:33N 40°51' E 029°11'4 3.8
2016-May-29 21:33N 40°51' E 029°16'0 0.0
2016-May-29 20:33N 40°51' E 029°16'0 0.0
2016-May-29 19:33N 40°51' E 029°16'0 0.0
2016-May-29 18:33N 40°51' E 029°16'0 0.0
2016-May-29 17:33N 40°51' E 029°16'0 0.0
2016-May-29 16:33N 40°51' E 029°16'0 0.0
2016-May-29 15:33N 40°51' E 029°16'0 0.0
2016-May-29 14:33N 40°51' E 029°16'0 0.0
2016-May-29 13:33N 40°51' E 029°16'0 0.0
2016-May-29 12:33N 40°51' E 029°16'0 0.0
2016-May-29 11:33N 40°51' E 029°16'0 0.0
2016-May-29 10:33N 40°51' E 029°16'0 0.0
2016-May-29 09:33N 40°51' E 029°16'0 0.0
2016-May-29 08:33N 40°51' E 029°16'0 0.0
2016-May-29 07:33N 40°51' E 029°16'0 0.2
2016-May-29 06:34N 40°51' E 029°16'1717.0
2016-May-29 05:33N 40°45' E 028°55'15116.8
2016-May-28 20:31N 39°48' E 025°51'6619.7
2016-May-28 17:11N 38°49' E 025°13'7719.9
2016-May-28 13:18N 37°41' E 024°28'1519.6
2016-May-28 12:32N 37°29' E 024°17'2019.9
2016-May-28 11:33N 37°13' E 024°01'2020.2
2016-May-28 10:33N 36°58' E 023°45'2020.2
2016-May-28 09:33N 36°42' E 023°29'17417.0
2016-May-27 23:20N 38°07' E 020°18'37920.2
2016-May-27 04:33N 43°05' E 015°09'2020.1
2016-May-27 03:33N 43°21' E 014°53'2019.8
2016-May-27 02:33N 43°36' E 014°36'2020.0
2016-May-27 01:34N 43°52' E 014°19'2020.1
2016-May-27 00:34N 44°08' E 014°02'2020.2
2016-May-26 23:33N 44°25' E 013°46'2019.8
2016-May-26 22:33N 44°42' E 013°31'2019.6
2016-May-26 21:33N 44°59' E 013°17'1919.4
2016-May-26 20:33N 45°16' E 013°05'1717.2
2016-May-26 19:33N 45°31' E 013°17'1818.5
2016-May-26 18:33N 45°39' E 013°41'3 2.5
2016-May-26 17:33N 45°38' E 013°45'0 0.0
2016-May-26 16:33N 45°38' E 013°45'0 0.0
2016-May-26 15:33N 45°38' E 013°45'0 0.0
2016-May-26 14:33N 45°38' E 013°45'0 0.0
2016-May-26 13:33N 45°38' E 013°45'0 0.0
2016-May-26 12:33N 45°38' E 013°45'0 0.0
2016-May-26 11:32N 45°38' E 013°45'0 0.0
2016-May-26 09:33N 45°38' E 013°45'0 0.0
2016-May-26 08:33N 45°38' E 013°45'0 0.0
2016-May-26 07:32N 45°38' E 013°45'0 0.0
2016-May-26 05:27N 45°38' E 013°45'0 0.0
2016-May-26 04:33N 45°38' E 013°45'0 0.0
2016-May-26 03:33N 45°38' E 013°45'0 0.0
2016-May-26 02:33N 45°38' E 013°45'0 0.0
2016-May-26 01:33N 45°38' E 013°45'0 0.0
2016-May-26 00:33N 45°38' E 013°45'0 0.0
2016-May-25 23:33N 45°38' E 013°45'0 0.0
2016-May-25 22:33N 45°38' E 013°45'0 0.0
2016-May-25 21:33N 45°38' E 013°45'0 0.0
2016-May-25 19:28N 45°38' E 013°45'0 0.0
2016-May-25 18:29N 45°38' E 013°45'0 0.0
2016-May-25 17:33N 45°38' E 013°45'0 0.0
2016-May-25 16:33N 45°38' E 013°45'0 0.0
2016-May-25 15:33N 45°38' E 013°45'0 0.0
2016-May-25 14:33N 45°38' E 013°45'0 0.0
2016-May-25 13:33N 45°38' E 013°45'0 0.0
2016-May-25 12:33N 45°38' E 013°45'0 0.0
2016-May-25 11:33N 45°38' E 013°45'29 4.6
2016-May-25 05:14N 45°19' E 013°14'1320.2
2016-May-25 04:33N 45°06' E 013°19'2019.8
2016-May-25 03:33N 44°48' E 013°32'2119.7
2016-May-25 02:30N 44°31' E 013°48'2319.6
2016-May-25 01:20N 44°11' E 014°05'1619.6
2016-May-25 00:30N 43°59' E 014°19'60718.9
2016-May-23 16:19N 36°33' E 023°20'1620.0
2016-May-23 15:33N 36°46' E 023°30'2020.1
2016-May-23 14:33N 37°03' E 023°44'2620.3
2016-May-23 13:17N 37°24' E 024°02'2320.5
2016-May-23 12:09N 37°43' E 024°19'28215.2
2016-May-22 17:32N 40°55' E 028°46'1919.9
2016-May-22 16:33N 40°50' E 029°11'4 4.0
2016-May-22 15:28N 40°51' E 029°16'0 0.0
2016-May-22 14:28N 40°51' E 029°16'0 0.0
2016-May-22 13:33N 40°51' E 029°16'0 0.0
2016-May-22 12:33N 40°51' E 029°16'0 0.0
2016-May-22 11:32N 40°51' E 029°16'0 0.0
2016-May-22 10:32N 40°51' E 029°16'0 0.0
2016-May-22 09:32N 40°51' E 029°16'0 0.0
2016-May-22 08:31N 40°51' E 029°16'0 0.0
2016-May-22 07:31N 40°51' E 029°16'0 0.0
2016-May-22 06:30N 40°51' E 029°16'0 0.0
2016-May-22 05:30N 40°51' E 029°16'0 0.0
2016-May-22 04:29N 40°51' E 029°16'0 0.0
2016-May-22 03:29N 40°51' E 029°16'0 0.0
2016-May-22 02:29N 40°51' E 029°16'0 0.0
2016-May-22 01:28N 40°51' E 029°16'0 0.0
2016-May-22 00:28N 40°51' E 029°16'0 0.0
2016-May-21 23:33N 40°51' E 029°16'0 0.0
2016-May-21 22:33N 40°51' E 029°16'0 0.0
2016-May-21 21:32N 40°51' E 029°16'0 0.0
2016-May-21 20:32N 40°51' E 029°16'0 0.0
2016-May-21 19:32N 40°51' E 029°16'0 0.0
2016-May-21 18:31N 40°51' E 029°16'0 0.0
2016-May-21 17:31N 40°51' E 029°16'0 0.0
2016-May-21 16:30N 40°51' E 029°16'0 0.0
2016-May-21 15:30N 40°51' E 029°16'0 0.0
2016-May-21 14:23N 40°51' E 029°16'0 0.0
2016-May-21 13:29N 40°51' E 029°16'0 0.0
2016-May-21 12:29N 40°51' E 029°16'0 0.0
2016-May-21 11:22N 40°51' E 029°16'0 0.0
2016-May-21 10:28N 40°51' E 029°16'1 1.0
2016-May-21 09:33N 40°51' E 029°15'1919.1
2016-May-21 08:33N 40°44' E 028°52'  
Track history (hours):
 
Tides and Currents Weather Stations Pressure Air Temp Water Temp Dewpoint Dewpoint Depression Visibility Wind Speed Wind Dir Waves Ship Positions

Un Karadeniz

Last reported at 2016-May-30 23:23 UTC. Time now 2016-May-31 00:07 UTC.
Position N 36°35' E 023°21'.

Length 193 m; draft 6.7 m.

Type: Ship (hazmat cat A). MMSI: 271002571.

Date/timePositionNaut miles runAvg speedWind from/ knotsBaromVisibWave heightAir tempDewpointWater temp
2016-May-30 23:23N 36°35' E 023°21'1719.9
2016-May-30 22:33N 36°49' E 023°33'2019.8
2016-May-30 21:32N 37°05' E 023°47'1919.9
2016-May-30 20:33N 37°22' E 024°00'2019.9
2016-May-30 19:33N 37°38' E 024°14'2020.1
2016-May-30 18:33N 37°53' E 024°31'3819.1
2016-May-30 16:33N 38°27' E 024°55'8119.2
2016-May-30 12:20N 39°39' E 025°43'15016.8
2016-May-30 03:23N 40°51' E 028°36'8 2.8
2016-May-30 00:31N 40°58' E 028°41'6 6.1
2016-May-29 23:33N 40°54' E 028°47'1918.7
2016-May-29 22:33N 40°51' E 029°11'4 3.8
2016-May-29 21:33N 40°51' E 029°16'0 0.0
2016-May-29 20:33N 40°51' E 029°16'0 0.0
2016-May-29 19:33N 40°51' E 029°16'0 0.0
2016-May-29 18:33N 40°51' E 029°16'0 0.0
2016-May-29 17:33N 40°51' E 029°16'0 0.0
2016-May-29 16:33N 40°51' E 029°16'0 0.0
2016-May-29 15:33N 40°51' E 029°16'0 0.0
2016-May-29 14:33N 40°51' E 029°16'0 0.0
2016-May-29 13:33N 40°51' E 029°16'0 0.0
2016-May-29 12:33N 40°51' E 029°16'0 0.0
2016-May-29 11:33N 40°51' E 029°16'0 0.0
2016-May-29 10:33N 40°51' E 029°16'0 0.0
2016-May-29 09:33N 40°51' E 029°16'0 0.0
2016-May-29 08:33N 40°51' E 029°16'0 0.0
2016-May-29 07:33N 40°51' E 029°16'0 0.2
2016-May-29 06:34N 40°51' E 029°16'1717.0
2016-May-29 05:33N 40°45' E 028°55'15116.8
2016-May-28 20:31N 39°48' E 025°51'6619.7
2016-May-28 17:11N 38°49' E 025°13'7719.9
2016-May-28 13:18N 37°41' E 024°28'1519.6
2016-May-28 12:32N 37°29' E 024°17'2019.9
2016-May-28 11:33N 37°13' E 024°01'2020.2
2016-May-28 10:33N 36°58' E 023°45'2020.2
2016-May-28 09:33N 36°42' E 023°29'17417.0
2016-May-27 23:20N 38°07' E 020°18'37920.2
2016-May-27 04:33N 43°05' E 015°09'2020.1
2016-May-27 03:33N 43°21' E 014°53'2019.8
2016-May-27 02:33N 43°36' E 014°36'2020.0
2016-May-27 01:34N 43°52' E 014°19'2020.1
2016-May-27 00:34N 44°08' E 014°02'2020.2
2016-May-26 23:33N 44°25' E 013°46'2019.8
2016-May-26 22:33N 44°42' E 013°31'2019.6
2016-May-26 21:33N 44°59' E 013°17'1919.4
2016-May-26 20:33N 45°16' E 013°05'1717.2
2016-May-26 19:33N 45°31' E 013°17'1818.5
2016-May-26 18:33N 45°39' E 013°41'3 2.5
2016-May-26 17:33N 45°38' E 013°45'0 0.0
2016-May-26 16:33N 45°38' E 013°45'0 0.0
2016-May-26 15:33N 45°38' E 013°45'0 0.0
2016-May-26 14:33N 45°38' E 013°45'0 0.0
2016-May-26 13:33N 45°38' E 013°45'0 0.0
2016-May-26 12:33N 45°38' E 013°45'0 0.0
2016-May-26 11:32N 45°38' E 013°45'0 0.0
2016-May-26 09:33N 45°38' E 013°45'0 0.0
2016-May-26 08:33N 45°38' E 013°45'0 0.0
2016-May-26 07:32N 45°38' E 013°45'0 0.0
2016-May-26 05:27N 45°38' E 013°45'0 0.0
2016-May-26 04:33N 45°38' E 013°45'0 0.0
2016-May-26 03:33N 45°38' E 013°45'0 0.0
2016-May-26 02:33N 45°38' E 013°45'0 0.0
2016-May-26 01:33N 45°38' E 013°45'0 0.0
2016-May-26 00:33N 45°38' E 013°45'0 0.0
2016-May-25 23:33N 45°38' E 013°45'0 0.0
2016-May-25 22:33N 45°38' E 013°45'0 0.0
2016-May-25 21:33N 45°38' E 013°45'0 0.0
2016-May-25 19:28N 45°38' E 013°45'0 0.0
2016-May-25 18:29N 45°38' E 013°45'0 0.0
2016-May-25 17:33N 45°38' E 013°45'0 0.0
2016-May-25 16:33N 45°38' E 013°45'0 0.0
2016-May-25 15:33N 45°38' E 013°45'0 0.0
2016-May-25 14:33N 45°38' E 013°45'0 0.0
2016-May-25 13:33N 45°38' E 013°45'0 0.0
2016-May-25 12:33N 45°38' E 013°45'0 0.0
2016-May-25 11:33N 45°38' E 013°45'29 4.6
2016-May-25 05:14N 45°19' E 013°14'1320.2
2016-May-25 04:33N 45°06' E 013°19'2019.8
2016-May-25 03:33N 44°48' E 013°32'2119.7
2016-May-25 02:30N 44°31' E 013°48'2319.6
2016-May-25 01:20N 44°11' E 014°05'1619.6
2016-May-25 00:30N 43°59' E 014°19'60718.9
2016-May-23 16:19N 36°33' E 023°20'1620.0
2016-May-23 15:33N 36°46' E 023°30'2020.1
2016-May-23 14:33N 37°03' E 023°44'2620.3
2016-May-23 13:17N 37°24' E 024°02'2320.5
2016-May-23 12:09N 37°43' E 024°19'28215.2
2016-May-22 17:32N 40°55' E 028°46'1919.9
2016-May-22 16:33N 40°50' E 029°11'4 4.0
2016-May-22 15:28N 40°51' E 029°16'0 0.0
2016-May-22 14:28N 40°51' E 029°16'0 0.0
2016-May-22 13:33N 40°51' E 029°16'0 0.0
2016-May-22 12:33N 40°51' E 029°16'0 0.0
2016-May-22 11:32N 40°51' E 029°16'0 0.0
2016-May-22 10:32N 40°51' E 029°16'0 0.0
2016-May-22 09:32N 40°51' E 029°16'0 0.0
2016-May-22 08:31N 40°51' E 029°16'0 0.0
2016-May-22 07:31N 40°51' E 029°16'0 0.0
2016-May-22 06:30N 40°51' E 029°16'0 0.0
2016-May-22 05:30N 40°51' E 029°16'0 0.0
2016-May-22 04:29N 40°51' E 029°16'0 0.0
2016-May-22 03:29N 40°51' E 029°16'0 0.0
2016-May-22 02:29N 40°51' E 029°16'0 0.0
2016-May-22 01:28N 40°51' E 029°16'0 0.0
2016-May-22 00:28N 40°51' E 029°16'0 0.0
2016-May-21 23:33N 40°51' E 029°16'0 0.0
2016-May-21 22:33N 40°51' E 029°16'0 0.0
2016-May-21 21:32N 40°51' E 029°16'0 0.0
2016-May-21 20:32N 40°51' E 029°16'0 0.0
2016-May-21 19:32N 40°51' E 029°16'0 0.0
2016-May-21 18:31N 40°51' E 029°16'0 0.0
2016-May-21 17:31N 40°51' E 029°16'0 0.0
2016-May-21 16:30N 40°51' E 029°16'0 0.0
2016-May-21 15:30N 40°51' E 029°16'0 0.0
2016-May-21 14:23N 40°51' E 029°16'0 0.0
2016-May-21 13:29N 40°51' E 029°16'0 0.0
2016-May-21 12:29N 40°51' E 029°16'0 0.0
2016-May-21 11:22N 40°51' E 029°16'0 0.0
2016-May-21 10:28N 40°51' E 029°16'1 1.0
2016-May-21 09:33N 40°51' E 029°15'1919.1
2016-May-21 08:33N 40°44' E 028°52'  

Dump ship's entire track history